createdAt,value
2018-12-22T00:01:14.222Z,9.90
2018-12-22T00:03:42.351Z,9.90
2018-12-22T00:06:10.518Z,9.80
2018-12-22T00:08:38.784Z,9.80
2018-12-22T00:11:06.939Z,9.80
2018-12-22T00:13:35.090Z,9.80
2018-12-22T00:16:04.123Z,9.80
2018-12-22T00:18:32.346Z,9.80
2018-12-22T00:21:00.499Z,9.90
2018-12-22T00:23:28.699Z,9.90
2018-12-22T00:25:56.886Z,9.90
2018-12-22T00:28:25.008Z,10.00
2018-12-22T00:30:53.343Z,10.00
2018-12-22T00:33:22.036Z,9.90
2018-12-22T00:35:50.255Z,9.90
2018-12-22T00:38:18.483Z,9.90
2018-12-22T00:40:46.684Z,9.90
2018-12-22T00:43:14.858Z,10.00
2018-12-22T00:45:43.024Z,10.00
2018-12-22T00:48:11.186Z,10.10
2018-12-22T00:50:39.456Z,10.00
2018-12-22T00:53:10.567Z,10.00
2018-12-22T00:55:38.743Z,10.00
2018-12-22T00:58:08.546Z,10.00
2018-12-22T01:00:36.715Z,10.00
2018-12-22T01:03:06.766Z,9.90
2018-12-22T01:05:34.982Z,9.90
2018-12-22T01:08:04.874Z,9.80
2018-12-22T01:10:34.194Z,9.80
2018-12-22T01:13:06.590Z,9.80
2018-12-22T01:15:34.746Z,9.70
2018-12-22T01:18:05.814Z,9.70
2018-12-22T01:20:34.062Z,9.70
2018-12-22T01:23:04.451Z,9.70
2018-12-22T01:25:32.590Z,9.60
2018-12-22T01:28:02.963Z,9.60
2018-12-22T01:30:31.155Z,9.60
2018-12-22T01:32:59.343Z,9.60
2018-12-22T01:35:27.514Z,9.60
2018-12-22T01:37:55.760Z,9.50
2018-12-22T01:40:24.990Z,9.50
2018-12-22T01:42:53.258Z,9.50
2018-12-22T01:45:21.430Z,9.50
2018-12-22T01:47:50.739Z,9.50
2018-12-22T01:50:18.887Z,9.50
2018-12-22T01:52:47.159Z,9.50
2018-12-22T01:55:15.328Z,9.50
2018-12-22T01:57:43.706Z,9.50
2018-12-22T02:00:11.936Z,9.40
2018-12-22T02:02:40.084Z,9.40
2018-12-22T02:05:08.358Z,9.40
2018-12-22T02:07:36.543Z,9.40
2018-12-22T02:10:07.787Z,9.40
2018-12-22T02:12:35.935Z,9.40
2018-12-22T02:15:06.104Z,9.40
2018-12-22T02:17:34.214Z,9.40
2018-12-22T02:20:06.695Z,9.40
2018-12-22T02:22:34.862Z,9.30
2018-12-22T02:25:04.451Z,9.30
2018-12-22T02:27:32.644Z,9.30
2018-12-22T02:30:03.896Z,9.30
2018-12-22T02:32:32.186Z,9.30
2018-12-22T02:35:00.312Z,9.30
2018-12-22T02:37:29.325Z,9.30
2018-12-22T02:39:57.591Z,9.30
2018-12-22T02:42:26.188Z,9.40
2018-12-22T02:44:54.322Z,9.40
2018-12-22T02:47:22.640Z,9.40
2018-12-22T02:49:50.826Z,9.40
2018-12-22T02:52:19.050Z,9.40
2018-12-22T02:54:47.251Z,9.50
2018-12-22T02:57:15.438Z,9.50
2018-12-22T02:59:43.615Z,9.50
2018-12-22T03:02:11.831Z,9.50
2018-12-22T03:04:40.010Z,9.40
2018-12-22T03:07:08.158Z,9.40
2018-12-22T03:09:37.151Z,9.40
2018-12-22T03:12:05.876Z,9.40
2018-12-22T03:14:34.100Z,9.30
2018-12-22T03:17:06.238Z,9.30
2018-12-22T03:19:34.428Z,9.30
2018-12-22T03:22:04.267Z,9.30
2018-12-22T03:24:32.473Z,9.30
2018-12-22T03:27:00.618Z,9.30
2018-12-22T03:29:28.786Z,9.30
2018-12-22T03:31:57.024Z,9.30
2018-12-22T03:34:25.195Z,9.30
2018-12-22T03:36:53.376Z,9.30
2018-12-22T03:39:21.571Z,9.30
2018-12-22T03:41:49.678Z,9.30
2018-12-22T03:44:17.946Z,9.30
2018-12-22T03:46:46.181Z,9.40
2018-12-22T03:49:14.342Z,9.30
2018-12-22T03:51:42.502Z,9.30
2018-12-22T03:54:10.685Z,9.30
2018-12-22T03:56:38.946Z,9.30
2018-12-22T03:59:07.362Z,9.30
2018-12-22T04:01:35.592Z,9.30
2018-12-22T04:04:07.712Z,9.30
2018-12-22T04:06:37.003Z,9.30
2018-12-22T04:09:09.206Z,9.30
2018-12-22T04:11:38.272Z,9.30
2018-12-22T04:14:06.486Z,9.30
2018-12-22T04:16:34.635Z,9.30
2018-12-22T04:19:04.967Z,9.30
2018-12-22T04:21:33.210Z,9.30
2018-12-22T04:24:04.603Z,9.30
2018-12-22T04:26:32.966Z,9.30
2018-12-22T04:29:03.878Z,9.30
2018-12-22T04:31:32.064Z,9.30
2018-12-22T04:34:01.973Z,9.30
2018-12-22T04:36:30.271Z,9.30
2018-12-22T04:38:58.497Z,9.30
2018-12-22T04:41:26.710Z,9.30
2018-12-22T04:43:54.879Z,9.40
2018-12-22T04:46:23.117Z,9.40
2018-12-22T04:48:51.261Z,9.40
2018-12-22T04:51:19.514Z,9.30
2018-12-22T04:53:47.722Z,9.20
2018-12-22T04:56:15.990Z,9.10
2018-12-22T04:58:44.150Z,9.10
2018-12-22T05:01:12.322Z,9.00
2018-12-22T05:03:40.501Z,9.00
2018-12-22T05:06:08.820Z,9.00
2018-12-22T05:08:37.125Z,9.00
2018-12-22T05:11:06.882Z,9.00
2018-12-22T05:13:35.160Z,8.90
2018-12-22T05:16:04.206Z,9.00
2018-12-22T05:18:32.415Z,9.00
2018-12-22T05:21:00.621Z,9.10
2018-12-22T05:23:28.860Z,9.10
2018-12-22T05:25:57.116Z,9.20
2018-12-22T05:28:26.251Z,9.30
2018-12-22T05:30:54.418Z,9.30
2018-12-22T05:33:22.604Z,9.30
2018-12-22T05:35:50.842Z,9.30
2018-12-22T05:38:19.163Z,9.20
2018-12-22T05:40:47.282Z,9.20
2018-12-22T05:43:15.470Z,9.20
2018-12-22T05:45:43.715Z,9.20
2018-12-22T05:48:11.951Z,9.10
2018-12-22T05:50:40.112Z,9.00
2018-12-22T05:53:08.287Z,8.90
2018-12-22T05:55:36.554Z,8.80
2018-12-22T05:58:07.546Z,8.80
2018-12-22T06:00:36.031Z,8.90
2018-12-22T06:03:06.998Z,8.90
2018-12-22T06:05:35.299Z,8.90
2018-12-22T06:08:05.276Z,9.00
2018-12-22T06:10:33.501Z,9.00
2018-12-22T06:13:02.763Z,8.90
2018-12-22T06:15:31.011Z,8.90
2018-12-22T06:17:59.263Z,8.80
2018-12-22T06:20:27.459Z,8.80
2018-12-22T06:22:55.590Z,8.80
2018-12-22T06:25:23.849Z,8.70
2018-12-22T06:27:52.099Z,8.70
2018-12-22T06:30:20.470Z,8.60
2018-12-22T06:32:48.712Z,8.60
2018-12-22T06:35:17.808Z,8.70
2018-12-22T06:37:46.010Z,8.70
2018-12-22T06:40:14.166Z,8.70
2018-12-22T06:42:43.358Z,8.80
2018-12-22T06:45:11.558Z,8.80
2018-12-22T06:47:39.775Z,8.80
2018-12-22T06:50:08.214Z,8.80
2018-12-22T06:52:36.380Z,8.70
2018-12-22T06:55:06.927Z,8.70
2018-12-22T06:57:35.135Z,8.60
2018-12-22T07:00:03.886Z,8.50
2018-12-22T07:02:32.039Z,8.50
2018-12-22T07:05:02.107Z,8.50
2018-12-22T07:07:30.326Z,8.40
2018-12-22T07:09:58.475Z,8.50
2018-12-22T07:12:26.630Z,8.50
2018-12-22T07:14:56.711Z,8.50
2018-12-22T07:17:24.954Z,8.60
2018-12-22T07:19:53.314Z,8.60
2018-12-22T07:22:23.417Z,8.60
2018-12-22T07:24:51.753Z,8.60
2018-12-22T07:27:19.988Z,8.60
2018-12-22T07:29:48.179Z,8.60
2018-12-22T07:32:16.890Z,8.60
2018-12-22T07:34:45.061Z,8.60
2018-12-22T07:37:13.310Z,8.60
2018-12-22T07:39:41.536Z,8.60
2018-12-22T07:42:09.792Z,8.60
2018-12-22T07:44:38.062Z,8.60
2018-12-22T07:47:06.341Z,8.60
2018-12-22T07:49:34.511Z,8.60
2018-12-22T07:52:05.144Z,8.60
2018-12-22T07:54:34.298Z,8.60
2018-12-22T07:57:04.360Z,8.50
2018-12-22T07:59:32.670Z,8.60
2018-12-22T08:02:05.625Z,8.60
2018-12-22T08:04:33.903Z,8.60
2018-12-22T08:07:04.670Z,8.60
2018-12-22T08:09:33.882Z,8.70
2018-12-22T08:12:03.041Z,8.70
2018-12-22T08:14:31.177Z,8.70
2018-12-22T08:16:59.411Z,8.70
2018-12-22T08:19:27.618Z,8.80
2018-12-22T08:21:55.800Z,8.80
2018-12-22T08:24:24.018Z,8.80
2018-12-22T08:26:52.194Z,8.80
2018-12-22T08:29:20.344Z,8.90
2018-12-22T08:31:48.507Z,9.00
2018-12-22T08:34:17.594Z,9.10
2018-12-22T08:36:45.870Z,9.30
2018-12-22T08:39:14.378Z,9.40
2018-12-22T08:41:42.527Z,9.40
2018-12-22T08:44:10.826Z,9.20
2018-12-22T08:46:38.990Z,8.90
2018-12-22T08:49:07.107Z,8.80
2018-12-22T08:51:35.337Z,8.70
2018-12-22T08:54:05.740Z,8.80
2018-12-22T08:56:34.034Z,8.80
2018-12-22T08:59:07.135Z,8.80
2018-12-22T09:01:35.418Z,8.80
2018-12-22T09:04:06.662Z,8.80
2018-12-22T09:06:34.856Z,8.80
2018-12-22T09:09:07.297Z,8.70
2018-12-22T09:11:35.519Z,8.80
2018-12-22T09:14:07.815Z,8.80
2018-12-22T09:16:36.284Z,8.60
2018-12-22T09:19:07.635Z,8.40
2018-12-22T09:21:35.775Z,8.20
2018-12-22T09:24:08.711Z,7.90
2018-12-22T09:26:37.128Z,7.80
2018-12-22T09:29:06.860Z,7.70
2018-12-22T09:31:34.988Z,7.60
2018-12-22T09:34:13.032Z,7.50
2018-12-22T09:36:35.910Z,7.50
2018-12-22T09:39:07.418Z,7.50
2018-12-22T09:41:35.716Z,7.40
2018-12-22T09:44:04.102Z,7.30
2018-12-22T09:46:33.193Z,7.30
2018-12-22T09:49:03.895Z,7.30
2018-12-22T09:51:32.230Z,7.30
2018-12-22T09:54:00.442Z,7.40
2018-12-22T09:56:28.639Z,7.30
2018-12-22T09:58:56.860Z,7.40
2018-12-22T10:01:25.212Z,7.50
2018-12-22T10:03:53.452Z,7.60
2018-12-22T10:06:21.645Z,7.60
2018-12-22T10:08:49.830Z,7.70
2018-12-22T10:11:18.014Z,7.80
2018-12-22T10:13:46.239Z,7.90
2018-12-22T10:16:14.374Z,8.00
2018-12-22T10:18:42.966Z,8.00
2018-12-22T10:21:11.478Z,7.90
2018-12-22T10:23:39.682Z,7.90
2018-12-22T10:26:07.894Z,7.80
2018-12-22T10:28:36.055Z,7.90
2018-12-22T10:31:04.958Z,8.10
2018-12-22T10:33:33.122Z,8.10
2018-12-22T10:36:02.878Z,8.10
2018-12-22T10:38:31.043Z,8.10
2018-12-22T10:40:59.173Z,8.20
2018-12-22T10:43:27.521Z,8.50
2018-12-22T10:45:55.769Z,9.30
2018-12-22T10:48:24.001Z,9.80
2018-12-22T10:50:52.158Z,9.90
2018-12-22T10:53:20.332Z,9.70
2018-12-22T10:55:48.602Z,9.70
2018-12-22T10:58:16.758Z,9.60
2018-12-22T11:00:44.910Z,9.40
2018-12-22T11:03:13.261Z,9.60
2018-12-22T11:05:41.419Z,10.10
2018-12-22T11:08:09.586Z,10.70
2018-12-22T11:10:37.839Z,10.80
2018-12-22T11:13:06.625Z,10.10
2018-12-22T11:15:34.882Z,9.80
2018-12-22T11:18:07.523Z,9.70
2018-12-22T11:20:35.738Z,9.80
2018-12-22T11:23:06.950Z,10.40
2018-12-22T11:25:35.191Z,10.80
2018-12-22T11:28:04.034Z,10.70
2018-12-22T11:30:39.303Z,10.80
2018-12-22T11:33:07.448Z,10.60
2018-12-22T11:35:35.706Z,10.30
2018-12-22T11:38:06.837Z,9.70
2018-12-22T11:40:35.094Z,9.10
2018-12-22T11:43:05.069Z,8.70
2018-12-22T11:45:33.244Z,8.50
2018-12-22T11:48:25.403Z,8.40
2018-12-22T11:50:53.847Z,8.50
2018-12-22T11:53:22.022Z,8.40
2018-12-22T11:55:50.207Z,8.70
2018-12-22T11:58:19.309Z,8.80
2018-12-22T12:03:22.203Z,9.30
2018-12-22T12:05:50.383Z,9.90
2018-12-22T12:08:18.555Z,10.40
2018-12-22T12:10:46.725Z,10.90
2018-12-22T12:13:14.957Z,11.70
2018-12-22T12:15:49.842Z,12.30
2018-12-22T12:18:34.266Z,12.70
2018-12-22T12:21:05.272Z,12.90
2018-12-22T12:23:33.466Z,12.90
2018-12-22T12:26:04.551Z,12.70
2018-12-22T12:28:32.755Z,12.20
2018-12-22T12:31:03.264Z,12.10
2018-12-22T12:33:31.422Z,12.20
2018-12-22T12:35:59.578Z,12.20
2018-12-22T12:38:27.872Z,11.90
2018-12-22T12:40:56.163Z,11.20
2018-12-22T12:43:24.420Z,11.10
2018-12-22T12:45:52.874Z,11.70
2018-12-22T12:48:23.406Z,12.00
2018-12-22T12:50:51.913Z,11.70
2018-12-22T12:53:20.188Z,11.20
2018-12-22T12:55:48.594Z,10.80
2018-12-22T12:58:16.776Z,10.70
2018-12-22T13:00:46.113Z,10.90
2018-12-22T13:03:14.447Z,11.30
2018-12-22T13:05:42.713Z,11.60
2018-12-22T13:08:10.935Z,11.90
2018-12-22T13:10:39.115Z,12.20
2018-12-22T13:13:23.892Z,12.10
2018-12-22T13:15:52.024Z,11.70
2018-12-22T13:18:20.200Z,11.50
2018-12-22T13:20:49.155Z,11.70
2018-12-22T13:23:17.326Z,11.50
2018-12-22T13:25:45.483Z,11.50
2018-12-22T13:28:13.667Z,11.10
2018-12-22T13:30:41.827Z,10.80
2018-12-22T13:33:09.994Z,10.70
2018-12-22T13:35:38.253Z,10.50
2018-12-22T13:38:07.346Z,10.40
2018-12-22T13:40:35.482Z,10.30
2018-12-22T13:43:05.072Z,10.30
2018-12-22T13:45:33.344Z,10.10
2018-12-22T13:48:03.786Z,10.10
2018-12-22T13:50:32.375Z,10.10
2018-12-22T13:53:00.702Z,10.10
2018-12-22T13:55:29.062Z,10.20
2018-12-22T13:57:57.382Z,10.30
2018-12-22T14:00:27.032Z,10.20
2018-12-22T14:02:55.314Z,10.30
2018-12-22T14:05:24.446Z,10.30
2018-12-22T14:07:52.690Z,10.20
2018-12-22T14:10:20.955Z,10.00
2018-12-22T14:12:49.254Z,9.80
2018-12-22T14:15:19.662Z,9.80
2018-12-22T14:17:54.282Z,9.80
2018-12-22T14:20:24.383Z,9.80
2018-12-22T14:22:53.371Z,9.70
2018-12-22T14:25:25.854Z,9.70
2018-12-22T14:27:54.027Z,9.60
2018-12-22T14:30:22.313Z,9.50
2018-12-22T14:32:50.642Z,9.40
2018-12-22T14:35:27.674Z,9.30
2018-12-22T14:37:55.838Z,9.30
2018-12-22T14:40:23.989Z,9.30
2018-12-22T14:42:52.160Z,9.20
2018-12-22T14:45:20.325Z,9.30
2018-12-22T14:47:49.494Z,9.30
2018-12-22T14:50:17.809Z,9.30
2018-12-22T14:52:45.982Z,9.30
2018-12-22T14:55:14.314Z,9.30
2018-12-22T14:57:49.204Z,9.30
2018-12-22T15:00:18.964Z,9.30
2018-12-22T15:02:47.182Z,9.20
2018-12-22T15:05:15.448Z,9.10
2018-12-22T15:07:43.734Z,9.00
2018-12-22T15:10:11.912Z,9.00
2018-12-22T15:12:40.058Z,8.90
2018-12-22T15:15:09.479Z,8.90
2018-12-22T15:17:38.458Z,8.90
2018-12-22T15:20:11.939Z,8.80
2018-12-22T15:22:40.363Z,8.80
2018-12-22T15:25:09.246Z,8.80
2018-12-22T15:27:37.409Z,8.70
2018-12-22T15:30:08.366Z,8.70
2018-12-22T15:32:43.910Z,8.70
2018-12-22T15:35:07.198Z,8.60
2018-12-22T15:37:35.589Z,8.60
2018-12-22T15:40:07.298Z,8.60
2018-12-22T15:42:35.551Z,8.50
2018-12-22T15:45:07.106Z,8.50
2018-12-22T15:47:35.378Z,8.50
2018-12-22T15:50:11.141Z,8.40
2018-12-22T15:52:39.467Z,8.50
2018-12-22T15:55:08.272Z,8.40
2018-12-22T15:57:36.696Z,8.30
2018-12-22T16:00:07.042Z,8.30
2018-12-22T16:02:35.176Z,8.30
2018-12-22T16:05:08.103Z,8.30
2018-12-22T16:07:36.498Z,8.30
2018-12-22T16:10:09.238Z,8.20
2018-12-22T16:12:37.435Z,8.20
2018-12-22T16:15:08.062Z,8.20
2018-12-22T16:17:36.324Z,8.20
2018-12-22T16:20:06.559Z,8.20
2018-12-22T16:22:34.786Z,8.20
2018-12-22T16:25:11.402Z,8.10
2018-12-22T16:27:36.809Z,8.10
2018-12-22T16:30:12.118Z,8.10
2018-12-22T16:32:41.425Z,8.00
2018-12-22T16:35:09.747Z,8.10
2018-12-22T16:37:38.037Z,8.00
2018-12-22T16:40:09.123Z,8.00
2018-12-22T16:42:37.267Z,8.00
2018-12-22T16:45:11.299Z,7.90
2018-12-22T16:47:39.656Z,7.90
2018-12-22T16:50:10.282Z,7.80
2018-12-22T16:52:39.429Z,7.90
2018-12-22T16:55:10.079Z,7.90
2018-12-22T16:57:39.998Z,7.80
2018-12-22T17:00:12.282Z,7.80
2018-12-22T17:02:54.999Z,7.80
2018-12-22T17:05:23.550Z,7.80
2018-12-22T17:07:51.774Z,7.80
2018-12-22T17:10:19.962Z,7.80
2018-12-22T17:12:48.116Z,7.70
2018-12-22T17:15:21.776Z,7.70
2018-12-22T17:17:46.938Z,7.70
2018-12-22T17:20:15.208Z,7.70
2018-12-22T17:23:12.127Z,7.80
2018-12-22T17:25:45.821Z,7.80
2018-12-22T17:28:14.930Z,7.70
2018-12-22T17:30:43.227Z,7.70
2018-12-22T17:33:18.701Z,7.70
2018-12-22T17:35:41.702Z,7.70
2018-12-22T17:38:10.025Z,7.70
2018-12-22T17:40:38.335Z,7.70
2018-12-22T17:43:06.480Z,7.70
2018-12-22T17:45:35.299Z,7.70
2018-12-22T17:48:07.063Z,7.70
2018-12-22T17:50:35.216Z,7.70
2018-12-22T17:53:03.899Z,7.70
2018-12-22T17:55:32.117Z,7.70
2018-12-22T17:58:00.388Z,7.70
2018-12-22T18:00:28.539Z,7.70
2018-12-22T18:02:56.873Z,7.70
2018-12-22T18:05:25.123Z,7.70
2018-12-22T18:07:53.262Z,7.70
2018-12-22T18:10:21.446Z,7.70
2018-12-22T18:12:49.604Z,7.70
2018-12-22T18:15:20.345Z,7.60
2018-12-22T18:17:48.618Z,7.70
2018-12-22T18:20:16.767Z,7.70
2018-12-22T18:22:44.990Z,7.70
2018-12-22T18:25:14.951Z,7.70
2018-12-22T18:27:43.195Z,7.70
2018-12-22T18:30:12.127Z,7.60
2018-12-22T18:32:40.581Z,7.60
2018-12-22T18:35:10.095Z,7.70
2018-12-22T18:37:38.832Z,7.70
2018-12-22T18:40:10.787Z,7.70
2018-12-22T18:42:38.955Z,7.80
2018-12-22T18:45:09.334Z,7.80
2018-12-22T18:47:37.548Z,7.80
2018-12-22T18:50:11.168Z,7.80
2018-12-22T18:52:39.359Z,7.80
2018-12-22T18:55:08.525Z,7.80
2018-12-22T18:57:36.846Z,7.70
2018-12-22T19:00:11.231Z,7.80
2018-12-22T19:02:39.799Z,7.70
2018-12-22T19:05:08.446Z,7.80
2018-12-22T19:07:36.730Z,7.80
2018-12-22T19:10:27.643Z,7.70
2018-12-22T19:15:31.415Z,7.70
2018-12-22T19:17:59.600Z,7.70
2018-12-22T19:20:33.394Z,7.70
2018-12-22T19:23:02.872Z,7.70
2018-12-22T19:25:31.234Z,7.70
2018-12-22T19:27:59.355Z,7.70
2018-12-22T19:30:27.597Z,7.70
2018-12-22T19:32:55.899Z,7.70
2018-12-22T19:35:24.065Z,7.60
2018-12-22T19:37:52.251Z,7.60
2018-12-22T19:40:20.455Z,7.60
2018-12-22T19:42:48.591Z,7.60
2018-12-22T19:45:17.386Z,7.60
2018-12-22T19:47:45.556Z,7.70
2018-12-22T19:50:13.770Z,7.60
2018-12-22T19:52:42.911Z,7.60
2018-12-22T19:55:11.216Z,7.60
2018-12-22T19:57:39.414Z,7.60
2018-12-22T20:00:07.922Z,7.50
2018-12-22T20:02:36.214Z,7.50
2018-12-22T20:05:04.986Z,7.50
2018-12-22T20:07:33.122Z,7.50
2018-12-22T20:10:03.919Z,7.50
2018-12-22T20:12:32.155Z,7.50
2018-12-22T20:15:00.504Z,7.40
2018-12-22T20:17:29.395Z,7.40
2018-12-22T20:19:57.851Z,7.40
2018-12-22T20:22:26.034Z,7.40
2018-12-22T20:24:54.234Z,7.40
2018-12-22T20:27:22.473Z,7.40
2018-12-22T20:29:50.617Z,7.40
2018-12-22T20:32:18.852Z,7.40
2018-12-22T20:34:47.088Z,7.40
2018-12-22T20:37:15.891Z,7.40
2018-12-22T20:39:44.033Z,7.40
2018-12-22T20:42:12.255Z,7.40
2018-12-22T20:44:40.423Z,7.40
2018-12-22T20:47:08.709Z,7.40
2018-12-22T20:49:36.890Z,7.40
2018-12-22T20:52:06.700Z,7.40
2018-12-22T20:54:35.007Z,7.40
2018-12-22T20:57:03.887Z,7.30
2018-12-22T20:59:33.019Z,7.30
2018-12-22T21:02:03.039Z,7.30
2018-12-22T21:04:31.722Z,7.30
2018-12-22T21:06:59.898Z,7.20
2018-12-22T21:09:28.087Z,7.20
2018-12-22T21:11:56.362Z,7.20
2018-12-22T21:14:25.475Z,7.20
2018-12-22T21:16:53.711Z,7.20
2018-12-22T21:19:21.847Z,7.20
2018-12-22T21:21:50.027Z,7.20
2018-12-22T21:24:18.194Z,7.30
2018-12-22T21:26:46.722Z,7.30
2018-12-22T21:29:14.871Z,7.30
2018-12-22T21:31:44.102Z,7.20
2018-12-22T21:34:12.240Z,7.10
2018-12-22T21:36:40.434Z,7.10
2018-12-22T21:39:08.595Z,7.10
2018-12-22T21:41:36.843Z,7.10
2018-12-22T21:44:05.034Z,7.10
2018-12-22T21:46:33.211Z,7.10
2018-12-22T21:49:02.849Z,7.10
2018-12-22T21:51:31.015Z,7.10
2018-12-22T21:53:59.143Z,7.10
2018-12-22T21:56:27.826Z,7.20
2018-12-22T21:58:56.002Z,7.20
2018-12-22T22:01:24.269Z,7.10
2018-12-22T22:03:53.395Z,7.00
2018-12-22T22:06:21.632Z,6.90
2018-12-22T22:08:49.868Z,6.90
2018-12-22T22:11:18.496Z,6.80
2018-12-22T22:13:46.750Z,6.80
2018-12-22T22:16:14.887Z,6.80
2018-12-22T22:18:43.081Z,6.80
2018-12-22T22:21:11.376Z,6.80
2018-12-22T22:23:39.730Z,6.80
2018-12-22T22:26:07.903Z,6.80
2018-12-22T22:28:36.056Z,6.80
2018-12-22T22:31:04.837Z,6.80
2018-12-22T22:33:33.860Z,6.80
2018-12-22T22:36:06.479Z,6.80
2018-12-22T22:38:34.675Z,6.70
2018-12-22T22:41:04.943Z,6.70
2018-12-22T22:43:33.114Z,6.70
2018-12-22T22:46:02.741Z,6.70
2018-12-22T22:48:30.995Z,6.70
2018-12-22T22:50:59.126Z,6.70
2018-12-22T22:53:27.298Z,6.80
2018-12-22T22:55:55.886Z,6.90
2018-12-22T22:58:24.089Z,7.00
2018-12-22T23:00:52.386Z,6.90
2018-12-22T23:03:20.566Z,6.90
2018-12-22T23:05:48.748Z,7.10
2018-12-22T23:08:16.934Z,7.20
2018-12-22T23:10:45.085Z,7.30
2018-12-22T23:13:13.240Z,7.30
2018-12-22T23:15:41.554Z,7.50
2018-12-22T23:18:09.694Z,7.40
2018-12-22T23:20:37.815Z,7.40
2018-12-22T23:23:07.647Z,7.30
2018-12-22T23:25:35.848Z,7.30
2018-12-22T23:28:07.710Z,7.20
2018-12-22T23:30:35.894Z,7.10
2018-12-22T23:33:04.980Z,6.90
2018-12-22T23:35:33.233Z,6.90
2018-12-22T23:38:02.775Z,7.00
2018-12-22T23:40:30.975Z,6.90
2018-12-22T23:42:59.241Z,6.90
2018-12-22T23:45:27.495Z,6.80
2018-12-22T23:47:55.646Z,6.80
2018-12-22T23:50:23.765Z,6.80
2018-12-22T23:52:52.026Z,6.80
2018-12-22T23:55:20.323Z,6.80
2018-12-22T23:57:48.503Z,6.80
